createdAt,value
2022-08-20T00:00:31.334Z,94984.82
2022-08-20T00:03:03.242Z,94994.17
2022-08-20T00:05:35.417Z,94990.41
2022-08-20T00:08:04.837Z,94994.21
2022-08-20T00:10:49.014Z,94996.33
2022-08-20T00:13:20.358Z,94989.52
2022-08-20T00:15:55.694Z,94989.98
2022-08-20T00:18:25.240Z,94987.27
2022-08-20T00:20:58.164Z,94985.94
2022-08-20T00:23:31.406Z,94991.03
2022-08-20T00:25:58.694Z,94992.88
2022-08-20T00:28:28.376Z,94986.97
2022-08-20T00:30:59.988Z,94987.88
2022-08-20T00:33:28.790Z,94987.44
2022-08-20T00:35:58.674Z,94989.09
2022-08-20T00:38:28.648Z,94981.97
2022-08-20T00:41:01.004Z,94986.05
2022-08-20T00:43:38.167Z,94989.23
2022-08-20T00:46:18.759Z,94986.23
2022-08-20T00:48:51.954Z,94985.16
2022-08-20T00:51:35.003Z,94981.54
2022-08-20T00:54:11.184Z,94981.56
2022-08-20T00:56:42.909Z,94977.48
2022-08-20T00:59:20.864Z,94975.66
2022-08-20T01:01:56.705Z,94972.94
2022-08-20T01:04:28.784Z,94972.50
2022-08-20T01:07:02.278Z,94972.97
2022-08-20T01:09:58.049Z,94962.98
2022-08-20T01:12:25.516Z,94965.23
2022-08-20T01:15:07.952Z,94956.47
2022-08-20T01:17:40.471Z,94959.80
2022-08-20T01:20:35.222Z,94956.78
2022-08-20T01:23:35.302Z,94950.45
2022-08-20T01:26:07.140Z,94946.22
2022-08-20T01:28:43.450Z,94951.05
2022-08-20T01:31:20.185Z,94948.02
2022-08-20T01:33:56.070Z,94948.94
2022-08-20T01:36:35.597Z,94949.11
2022-08-20T01:39:10.781Z,94944.56
2022-08-20T01:41:45.913Z,94956.66
2022-08-20T01:44:16.799Z,94952.88
2022-08-20T01:46:47.924Z,94953.80
2022-08-20T01:49:32.066Z,94955.46
2022-08-20T01:52:03.854Z,94947.02
2022-08-20T01:54:34.286Z,94936.44
2022-08-20T01:57:05.964Z,94936.27
2022-08-20T01:59:34.716Z,94932.36
2022-08-20T02:02:07.196Z,94939.45
2022-08-20T02:04:36.187Z,94932.80
2022-08-20T02:07:06.584Z,94937.34
2022-08-20T02:09:39.218Z,94936.27
2022-08-20T02:12:13.918Z,94932.05
2022-08-20T02:14:47.603Z,94930.24
2022-08-20T02:17:19.968Z,94936.75
2022-08-20T02:19:56.204Z,94935.05
2022-08-20T02:22:33.836Z,94928.59
2022-08-20T02:25:11.517Z,94927.34
2022-08-20T02:27:43.664Z,94930.52
2022-08-20T02:30:19.338Z,94927.19
2022-08-20T02:32:48.155Z,94929.91
2022-08-20T02:35:20.896Z,94926.89
2022-08-20T02:37:51.712Z,94925.09
2022-08-20T02:40:30.514Z,94928.56
2022-08-20T02:43:01.289Z,94933.23
2022-08-20T02:45:33.441Z,94924.02
2022-08-20T02:48:06.738Z,94931.87
2022-08-20T02:50:38.206Z,94926.00
2022-08-20T02:53:09.711Z,94929.16
2022-08-20T02:55:41.530Z,94932.34
2022-08-20T02:58:10.440Z,94931.87
2022-08-20T03:00:41.475Z,94938.05
2022-08-20T03:03:12.208Z,94926.71
2022-08-20T03:05:43.407Z,94933.23
2022-08-20T03:08:16.921Z,94938.64
2022-08-20T03:10:48.111Z,94944.99
2022-08-20T03:16:51.784Z,94939.54
2022-08-20T03:19:28.654Z,94939.52
2022-08-20T03:22:01.288Z,94938.02
2022-08-20T03:24:31.855Z,94934.83
2022-08-20T03:27:00.815Z,94934.81
2022-08-20T03:29:37.079Z,94935.42
2022-08-20T03:32:12.001Z,94933.89
2022-08-20T03:34:44.071Z,94943.39
2022-08-20T03:37:28.197Z,94936.12
2022-08-20T03:39:59.018Z,94937.02
2022-08-20T03:42:30.413Z,94934.75
2022-08-20T03:45:05.465Z,94935.35
2022-08-20T03:47:36.653Z,94936.56
2022-08-20T03:50:23.082Z,94945.18
2022-08-20T03:52:40.387Z,94950.89
2022-08-20T03:55:18.899Z,94956.91
2022-08-20T03:57:52.638Z,94950.23
2022-08-20T04:00:24.576Z,94954.48
2022-08-20T04:02:56.036Z,94958.86
2022-08-20T04:05:40.019Z,94958.73
2022-08-20T04:08:29.082Z,94968.11
2022-08-20T04:10:59.821Z,94961.64
2022-08-20T04:13:31.123Z,94958.52
2022-08-20T04:16:06.633Z,94959.98
2022-08-20T04:18:40.853Z,94956.58
2022-08-20T04:21:14.848Z,94958.23
2022-08-20T04:23:43.555Z,94964.44
2022-08-20T04:26:12.611Z,94970.14
2022-08-20T04:28:41.481Z,94963.08
2022-08-20T04:31:11.905Z,94969.53
2022-08-20T04:33:52.662Z,94964.44
2022-08-20T04:36:25.643Z,94970.16
2022-08-20T04:38:54.947Z,94969.63
2022-08-20T04:41:27.094Z,94972.10
2022-08-20T04:43:58.185Z,94970.27
2022-08-20T04:46:34.097Z,94953.19
2022-08-20T04:49:09.969Z,94960.23
2022-08-20T04:51:40.376Z,94964.56
2022-08-20T04:54:13.616Z,94966.83
2022-08-20T04:56:42.531Z,94973.83
2022-08-20T04:59:14.220Z,94971.58
2022-08-20T05:01:42.969Z,94966.86
2022-08-20T05:04:11.716Z,94961.95
2022-08-20T05:09:44.136Z,94970.13
2022-08-20T05:12:10.721Z,94964.78
2022-08-20T05:14:39.453Z,94967.61
2022-08-20T05:17:08.180Z,94973.23
2022-08-20T05:19:39.614Z,94971.98
2022-08-20T05:22:10.054Z,94966.59
2022-08-20T05:24:42.886Z,94972.08
2022-08-20T05:27:14.094Z,94974.36
2022-08-20T05:29:44.686Z,94970.77
2022-08-20T05:32:14.119Z,94969.00
2022-08-20T05:34:43.464Z,94963.73
2022-08-20T05:37:12.192Z,94966.76
2022-08-20T05:39:40.843Z,94964.09
2022-08-20T05:42:11.897Z,94939.87
2022-08-20T05:44:42.318Z,94966.80
2022-08-20T05:47:12.215Z,94958.03
2022-08-20T05:49:42.300Z,94952.44
2022-08-20T05:52:12.787Z,94950.37
2022-08-20T05:54:41.567Z,94951.87
2022-08-20T05:57:14.721Z,94961.19
2022-08-20T05:59:46.307Z,94961.70
2022-08-20T06:02:34.413Z,94963.36
2022-08-20T06:05:03.201Z,94950.25
2022-08-20T06:07:32.013Z,94944.33
2022-08-20T06:10:03.621Z,94945.41
2022-08-20T06:12:32.736Z,94947.63
2022-08-20T06:15:01.517Z,94947.34
2022-08-20T06:17:39.311Z,94945.05
2022-08-20T06:20:07.995Z,94948.36
2022-08-20T06:22:42.315Z,94956.34
2022-08-20T06:25:14.585Z,94959.59
2022-08-20T06:27:44.883Z,94961.27
2022-08-20T06:30:17.480Z,94968.47
2022-08-20T06:32:46.538Z,94961.38
2022-08-20T06:35:19.420Z,94960.16
2022-08-20T06:37:46.645Z,94956.16
2022-08-20T06:40:18.978Z,94953.20
2022-08-20T06:42:49.728Z,94944.57
2022-08-20T06:45:23.407Z,94951.34
2022-08-20T06:47:56.036Z,94943.66
2022-08-20T06:50:28.043Z,94938.00
2022-08-20T06:52:56.845Z,94941.49
2022-08-20T06:55:25.811Z,94941.16
2022-08-20T06:58:03.378Z,94938.45
2022-08-20T07:00:35.496Z,94933.88
2022-08-20T07:03:18.579Z,94935.58
2022-08-20T07:05:56.083Z,94935.96
2022-08-20T07:08:23.573Z,94935.80
2022-08-20T07:25:44.158Z,94912.54
2022-08-20T07:28:14.797Z,94919.15
2022-08-20T07:31:13.332Z,94908.23
2022-08-20T07:33:42.495Z,94907.23
2022-08-20T07:36:14.047Z,94908.06
2022-08-20T07:38:53.876Z,94907.09
2022-08-20T07:41:30.030Z,94907.14
2022-08-20T07:44:33.106Z,94900.83
2022-08-20T07:47:14.646Z,94905.36
2022-08-20T07:49:48.410Z,94908.16
2022-08-20T07:55:18.221Z,94916.45
2022-08-20T07:57:54.540Z,94911.37
2022-08-20T08:00:57.683Z,94911.76
2022-08-20T08:03:48.995Z,94905.38
2022-08-20T08:09:17.172Z,94910.60
2022-08-20T08:11:56.766Z,94908.36
2022-08-20T08:14:32.205Z,94905.73
2022-08-20T08:17:08.465Z,94911.11
2022-08-20T08:19:45.970Z,94909.11
2022-08-20T08:22:22.474Z,94907.95
2022-08-20T08:24:58.600Z,94900.81
2022-08-20T08:27:38.342Z,94897.77
2022-08-20T08:30:15.112Z,94895.45
2022-08-20T08:33:08.662Z,94893.96
2022-08-20T08:35:48.617Z,94890.56
2022-08-20T08:38:28.983Z,94890.12
2022-08-20T08:41:05.487Z,94889.97
2022-08-20T08:46:35.984Z,94879.23
2022-08-20T08:52:14.476Z,94868.77
2022-08-20T08:54:52.781Z,94866.23
2022-08-20T08:57:28.230Z,94867.84
2022-08-20T09:00:11.122Z,94863.91
2022-08-20T09:02:50.721Z,94856.47
2022-08-20T09:05:25.735Z,94849.47
2022-08-20T09:08:16.856Z,94853.42
2022-08-20T09:10:51.868Z,94850.25
2022-08-20T09:13:22.678Z,94845.02
2022-08-20T09:15:55.257Z,94841.74
2022-08-20T09:18:29.975Z,94848.56
2022-08-20T09:20:59.098Z,94850.53
2022-08-20T09:23:33.698Z,94857.48
2022-08-20T09:26:10.363Z,94836.75
2022-08-20T09:28:55.061Z,94850.30
2022-08-20T09:31:21.864Z,94846.86
2022-08-20T09:33:59.369Z,94849.27
2022-08-20T09:36:37.851Z,94848.11
2022-08-20T09:42:29.614Z,94830.63
2022-08-20T09:45:02.794Z,94832.47
2022-08-20T09:47:56.206Z,94829.00
2022-08-20T09:50:35.116Z,94833.14
2022-08-20T09:53:06.865Z,94832.91
2022-08-20T09:55:40.801Z,94825.34
2022-08-20T09:58:30.708Z,94827.42
2022-08-20T10:01:01.159Z,94826.55
2022-08-20T10:03:29.789Z,94822.92
2022-08-20T10:05:59.880Z,94827.20
2022-08-20T10:08:28.631Z,94828.81
2022-08-20T10:10:57.358Z,94827.66
2022-08-20T10:13:26.136Z,94826.47
2022-08-20T10:15:54.863Z,94825.83
2022-08-20T10:18:26.725Z,94822.11
2022-08-20T10:20:55.365Z,94819.27
2022-08-20T10:23:23.941Z,94817.00
2022-08-20T10:25:54.079Z,94820.58
2022-08-20T10:28:22.742Z,94817.98
2022-08-20T10:30:51.487Z,94812.36
2022-08-20T10:33:20.239Z,94807.43
2022-08-20T10:35:49.207Z,94809.02
2022-08-20T10:38:19.817Z,94807.38
2022-08-20T10:40:52.654Z,94800.05
2022-08-20T10:43:19.348Z,94798.88
2022-08-20T10:45:49.067Z,94798.78
2022-08-20T10:51:16.539Z,94798.19
2022-08-20T10:53:57.200Z,94794.91
2022-08-20T10:56:31.838Z,94797.97
2022-08-20T11:01:58.612Z,94796.58
2022-08-20T11:04:27.532Z,94793.83
2022-08-20T11:07:07.267Z,94793.07
2022-08-20T11:10:13.766Z,94789.67
2022-08-20T11:12:54.414Z,94785.03
2022-08-20T11:15:29.669Z,94790.81
2022-08-20T11:18:01.632Z,94775.35
2022-08-20T11:20:51.020Z,94774.55
2022-08-20T11:26:42.101Z,94773.73
2022-08-20T11:32:29.273Z,94754.19
2022-08-20T11:35:13.789Z,94751.44
2022-08-20T11:37:58.731Z,94744.19
2022-08-20T11:41:02.270Z,94742.17
2022-08-20T11:44:10.547Z,94734.78
2022-08-20T11:49:30.907Z,94736.23
2022-08-20T11:52:18.620Z,94738.51
2022-08-20T11:54:54.677Z,94730.27
2022-08-20T11:57:35.352Z,94738.20
2022-08-20T12:00:08.941Z,94737.66
2022-08-20T12:02:39.113Z,94732.77
2022-08-20T12:05:10.364Z,94731.53
2022-08-20T12:07:43.847Z,94731.53
2022-08-20T12:10:14.910Z,94729.09
2022-08-20T12:12:45.003Z,94731.25
2022-08-20T12:15:13.724Z,94726.13
2022-08-20T12:17:42.645Z,94731.41
2022-08-20T12:20:14.184Z,94733.83
2022-08-20T12:22:44.784Z,94727.56
2022-08-20T12:25:13.930Z,94738.56
2022-08-20T12:27:46.957Z,94742.48
2022-08-20T12:30:20.087Z,94742.41
2022-08-20T12:33:07.191Z,94743.42
2022-08-20T12:35:37.866Z,94742.73
2022-08-20T12:38:07.834Z,94746.14
2022-08-20T12:40:38.821Z,94750.72
2022-08-20T12:43:08.564Z,94750.80
2022-08-20T12:45:42.454Z,94758.13
2022-08-20T12:48:17.221Z,94763.00
2022-08-20T12:50:46.397Z,94770.25
2022-08-20T12:53:15.075Z,94774.45
2022-08-20T12:55:43.788Z,94786.24
2022-08-20T12:58:13.570Z,94775.83
2022-08-20T13:00:50.897Z,94764.19
2022-08-20T13:03:18.248Z,94739.70
2022-08-20T13:05:48.261Z,94741.53
2022-08-20T13:08:20.127Z,94737.25
2022-08-20T13:10:50.897Z,94726.77
2022-08-20T13:13:20.341Z,94723.23
2022-08-20T13:15:50.852Z,94713.23
2022-08-20T13:18:23.875Z,94704.54
2022-08-20T13:20:52.663Z,94705.58
2022-08-20T13:23:21.359Z,94709.09
2022-08-20T13:25:50.111Z,94723.58
2022-08-20T13:28:21.665Z,94723.59
2022-08-20T13:30:50.467Z,94736.42
2022-08-20T13:33:19.269Z,94738.26
2022-08-20T13:35:47.981Z,94756.09
2022-08-20T13:38:16.691Z,94752.70
2022-08-20T13:40:48.931Z,94746.13
2022-08-20T13:43:17.375Z,94759.70
2022-08-20T13:45:47.747Z,94767.45
2022-08-20T13:48:16.503Z,94779.16
2022-08-20T13:50:49.432Z,94781.02
2022-08-20T13:53:21.809Z,94781.50
2022-08-20T13:55:51.989Z,94800.87
2022-08-20T13:58:22.880Z,94837.03
2022-08-20T14:00:52.004Z,94859.39
2022-08-20T14:03:25.491Z,94885.45
2022-08-20T14:05:56.370Z,94902.50
2022-08-20T14:08:31.892Z,94921.61
2022-08-20T14:14:24.635Z,94901.10
2022-08-20T14:19:57.814Z,94925.59
2022-08-20T14:22:26.635Z,94943.00
2022-08-20T14:24:56.620Z,94947.55
2022-08-20T14:27:31.028Z,94943.50
2022-08-20T14:29:57.836Z,94938.53
2022-08-20T14:32:27.178Z,94935.94
2022-08-20T14:34:58.426Z,94932.48
2022-08-20T14:37:30.441Z,94927.34
2022-08-20T14:40:02.801Z,94936.89
2022-08-20T14:42:32.010Z,94945.09
2022-08-20T14:45:02.309Z,94963.02
2022-08-20T14:47:35.313Z,94978.12
2022-08-20T14:50:07.013Z,94987.27
2022-08-20T14:52:36.855Z,94999.23
2022-08-20T14:55:11.423Z,94980.42
2022-08-20T14:57:41.269Z,94936.44
2022-08-20T15:00:12.695Z,94906.88
2022-08-20T15:02:41.984Z,94861.42
2022-08-20T15:05:12.992Z,94826.14
2022-08-20T15:07:44.880Z,94807.39
2022-08-20T15:10:23.952Z,94792.61
2022-08-20T15:12:52.936Z,94779.67
2022-08-20T15:15:21.755Z,94788.19
2022-08-20T15:17:53.666Z,94794.05
2022-08-20T15:20:25.324Z,94833.67
2022-08-20T15:22:57.097Z,94853.44
2022-08-20T15:25:36.691Z,94860.52
2022-08-20T15:28:07.647Z,94842.29
2022-08-20T15:30:46.176Z,94834.33
2022-08-20T15:33:16.936Z,94819.45
2022-08-20T15:35:45.977Z,94804.36
2022-08-20T15:38:20.647Z,94810.94
2022-08-20T15:41:02.333Z,94814.31
2022-08-20T15:47:20.070Z,94792.18
2022-08-20T15:50:14.182Z,94786.60
2022-08-20T15:52:44.685Z,94790.53
2022-08-20T15:55:16.745Z,94774.86
2022-08-20T16:50:44.455Z,94750.52
2022-08-20T16:53:24.018Z,94748.20
2022-08-20T16:57:00.085Z,94742.39
2022-08-20T17:21:29.461Z,94850.75
2022-08-20T17:24:06.783Z,94849.88
2022-08-20T17:26:40.410Z,94852.47
2022-08-20T17:32:19.642Z,94879.61
2022-08-20T17:34:53.570Z,94906.00
2022-08-20T17:37:27.648Z,94909.09
2022-08-20T17:40:11.533Z,94948.30
2022-08-20T17:42:56.696Z,94964.98
2022-08-20T17:45:28.494Z,94969.05
2022-08-20T17:48:00.136Z,94971.36
2022-08-20T17:50:34.722Z,94987.47
2022-08-20T17:53:23.725Z,94987.16
2022-08-20T17:55:55.120Z,95008.35
2022-08-20T17:58:28.958Z,95011.17
2022-08-20T18:00:57.757Z,95012.42
2022-08-20T18:03:28.291Z,95028.53
2022-08-20T18:06:02.827Z,95033.06
2022-08-20T18:08:44.271Z,95041.78
2022-08-20T18:11:22.512Z,95046.91
2022-08-20T18:14:03.198Z,95045.36
2022-08-20T18:16:37.519Z,95050.94
2022-08-20T18:19:18.859Z,95071.38
2022-08-20T18:22:02.608Z,95060.75
2022-08-20T18:24:52.289Z,95064.56
2022-08-20T18:27:27.276Z,95058.56
2022-08-20T18:29:58.990Z,95065.48
2022-08-20T18:32:34.579Z,95082.38
2022-08-20T18:35:24.673Z,95087.68
2022-08-20T18:37:53.621Z,95085.63
2022-08-20T18:40:33.366Z,95090.73
2022-08-20T18:43:06.695Z,95093.83
2022-08-20T18:45:40.656Z,95088.83
2022-08-20T18:48:19.230Z,95091.86
2022-08-20T18:50:58.305Z,95084.84
2022-08-20T18:53:33.717Z,95079.36
2022-08-20T18:56:11.158Z,95079.40
2022-08-20T18:59:14.777Z,95078.41
2022-08-20T19:01:44.566Z,95064.02
2022-08-20T19:04:32.581Z,95070.77
2022-08-20T19:07:05.928Z,95080.70
2022-08-20T19:09:59.954Z,95089.92
2022-08-20T19:12:48.624Z,95087.82
2022-08-20T19:15:24.182Z,95078.77
2022-08-20T19:18:29.127Z,95067.20
2022-08-20T19:21:15.586Z,95082.58
2022-08-20T19:23:39.077Z,95094.02
2022-08-20T19:26:25.424Z,95099.58
2022-08-20T19:29:00.529Z,95092.34
2022-08-20T19:31:34.420Z,95105.30
2022-08-20T19:34:19.900Z,95102.76
2022-08-20T19:36:54.156Z,95091.97
2022-08-20T19:39:26.762Z,95087.59
2022-08-20T19:42:12.765Z,95078.45
2022-08-20T19:45:11.493Z,95074.30
2022-08-20T19:47:43.330Z,95082.32
2022-08-20T19:50:42.719Z,95098.14
2022-08-20T19:53:34.665Z,95103.94
2022-08-20T19:56:09.372Z,95094.67
2022-08-20T19:58:40.134Z,95077.67
2022-08-20T20:01:20.935Z,95063.20
2022-08-20T20:04:05.503Z,95040.00
2022-08-20T20:06:39.781Z,95049.99
2022-08-20T20:09:11.498Z,95055.82
2022-08-20T20:11:49.160Z,95064.54
2022-08-20T20:14:23.506Z,95056.08
2022-08-20T20:16:56.830Z,95053.58
2022-08-20T20:19:28.299Z,95049.92
2022-08-20T20:22:20.929Z,95057.17
2022-08-20T20:24:53.498Z,95065.23
2022-08-20T20:27:44.607Z,95065.32
2022-08-20T20:30:14.649Z,95074.34
2022-08-20T20:32:48.228Z,95061.00
2022-08-20T20:35:34.943Z,95065.48
2022-08-20T20:38:06.620Z,95065.65
2022-08-20T20:40:47.696Z,95070.80
2022-08-20T20:43:33.099Z,95074.58
2022-08-20T20:46:25.373Z,95066.55
2022-08-20T20:49:12.254Z,95050.17
2022-08-20T20:51:44.351Z,95020.47
2022-08-20T20:54:31.619Z,95022.16
2022-08-20T20:57:03.231Z,95005.42
2022-08-20T20:59:40.986Z,94981.97
2022-08-20T21:02:11.705Z,94982.83
2022-08-20T21:04:44.269Z,94961.06
2022-08-20T21:07:15.983Z,94951.91
2022-08-20T21:09:46.488Z,94945.66
2022-08-20T21:12:15.408Z,94933.34
2022-08-20T21:14:45.022Z,94931.98
2022-08-20T21:17:22.035Z,94911.88
2022-08-20T21:19:52.434Z,94904.70
2022-08-20T21:22:22.882Z,94898.26
2022-08-20T21:24:51.672Z,94886.94
2022-08-20T21:27:27.266Z,94882.21
2022-08-20T21:29:58.787Z,94893.26
2022-08-20T21:32:30.388Z,94889.90
2022-08-20T21:34:59.037Z,94880.41
2022-08-20T21:37:27.767Z,94865.84
2022-08-20T21:39:56.563Z,94859.22
2022-08-20T21:42:29.447Z,94859.59
2022-08-20T21:44:58.887Z,94853.45
2022-08-20T21:47:28.430Z,94860.76
2022-08-20T21:49:57.222Z,94858.20
2022-08-20T21:52:25.980Z,94860.20
2022-08-20T21:54:54.782Z,94856.13
2022-08-20T21:57:26.423Z,94848.23
2022-08-20T21:59:56.411Z,94852.92
2022-08-20T22:02:27.164Z,94866.63
2022-08-20T22:04:56.164Z,94875.33
2022-08-20T22:07:25.570Z,94874.84
2022-08-20T22:09:55.427Z,94886.05
2022-08-20T22:15:25.313Z,94889.36
2022-08-20T22:17:55.223Z,94889.11
2022-08-20T22:20:29.941Z,94894.19
2022-08-20T22:23:04.788Z,94903.02
2022-08-20T22:25:37.079Z,94901.82
2022-08-20T22:31:02.117Z,94895.43
2022-08-20T22:36:28.990Z,94894.77
2022-08-20T22:39:06.478Z,94823.25
2022-08-20T22:42:06.649Z,94889.86
2022-08-20T22:47:45.222Z,94887.69
2022-08-20T22:53:01.825Z,94882.39
2022-08-20T22:55:38.967Z,94886.66
2022-08-20T22:58:17.977Z,94888.22
2022-08-20T23:00:58.108Z,94882.28
2022-08-20T23:03:39.841Z,94886.39
2022-08-20T23:06:05.893Z,94878.55
2022-08-20T23:08:36.763Z,94878.75
2022-08-20T23:11:05.339Z,94868.10
2022-08-20T23:13:34.182Z,94858.83
2022-08-20T23:16:03.125Z,94858.63
2022-08-20T23:18:32.515Z,94852.19
2022-08-20T23:21:03.247Z,94850.33
2022-08-20T23:23:32.975Z,94853.38
2022-08-20T23:26:03.400Z,94848.98
2022-08-20T23:28:35.477Z,94850.00
2022-08-20T23:31:04.182Z,94848.00
2022-08-20T23:33:32.784Z,94855.23
2022-08-20T23:36:04.214Z,94831.45
2022-08-20T23:38:33.023Z,94844.23
2022-08-20T23:41:05.330Z,94832.80
2022-08-20T23:43:33.801Z,94840.22
2022-08-20T23:46:05.394Z,94841.49
2022-08-20T23:48:36.963Z,94843.90
2022-08-20T23:51:06.195Z,94845.69
2022-08-20T23:53:36.197Z,94849.84
2022-08-20T23:56:05.813Z,94840.03
2022-08-20T23:58:34.605Z,94830.66
